Time;durP1;ratioP1;P1;durP2;ratioP2;P2;SDS_P1;SDS_P2;PMS_P1;PMS_P2;Temp;Humidity;BMP_temperature;BMP_pressure;BME280_temperature;BME280_humidity;BME280_pressure;Samples;Min_cycle;Max_cycle;Signal;HPM_P1;HPM_P2
2021/03/14 00:01:17;;;;;;;18.27;7.05;;;;;;;;;;4988492;28;20027;-63
2021/03/14 00:03:43;;;;;;;13.20;5.88;;;;;;;;;;4989702;28;20031;-63
2021/03/14 00:06:09;;;;;;;20.60;7.50;;;;;;;;;;5004482;28;20037;-62
2021/03/14 00:08:35;;;;;;;17.88;6.82;;;;;;;;;;4989349;28;20027;-62
2021/03/14 00:11:04;;;;;;;16.83;8.32;;;;;;;;;;5004205;28;20033;-61
2021/03/14 00:13:30;;;;;;;;;;;;;;;;;;5004755;28;20844;-62
2021/03/14 00:15:56;;;;;;;17.65;8.25;;;;;;;;;;4988643;28;20045;-61
2021/03/14 00:18:26;;;;;;;18.42;6.75;;;;;;;;;;4989051;28;20133;-62
2021/03/14 00:20:52;;;;;;;20.52;6.28;;;;;;;;;;4988633;28;20038;-63
2021/03/14 00:23:19;;;;;;;18.35;6.10;;;;;;;;;;4988559;28;20096;-65
2021/03/14 00:25:45;;;;;;;18.02;6.35;;;;;;;;;;4972180;28;20026;-64
2021/03/14 00:28:12;;;;;;;17.02;5.95;;;;;;;;;;4989436;28;20080;-63
2021/03/14 00:30:39;;;;;;;34.43;6.50;;;;;;;;;;4972145;28;20436;-63
2021/03/14 00:33:05;;;;;;;17.10;6.25;;;;;;;;;;4989942;28;20288;-63
2021/03/14 00:35:31;;;;;;;17.17;6.25;;;;;;;;;;4989713;28;20030;-62
2021/03/14 00:37:57;;;;;;;19.08;6.15;;;;;;;;;;4971779;28;20033;-62
2021/03/14 00:40:24;;;;;;;17.92;6.72;;;;;;;;;;4989272;28;20068;-64
2021/03/14 00:42:51;;;;;;;19.52;6.85;;;;;;;;;;4989127;28;20102;-64
2021/03/14 00:45:18;;;;;;;17.30;5.95;;;;;;;;;;4988974;28;20101;-63
2021/03/14 00:47:44;;;;;;;17.15;6.65;;;;;;;;;;4971300;28;20101;-64
2021/03/14 00:50:10;;;;;;;17.17;5.88;;;;;;;;;;4989020;28;20038;-62
2021/03/14 00:52:36;;;;;;;17.13;6.30;;;;;;;;;;4989032;28;20030;-63
2021/03/14 00:55:02;;;;;;;16.35;6.47;;;;;;;;;;4988671;28;20033;-63
2021/03/14 00:57:28;;;;;;;20.05;6.40;;;;;;;;;;4971172;28;20042;-63
2021/03/14 00:59:54;;;;;;;16.30;6.38;;;;;;;;;;4971988;28;20041;-62
2021/03/14 01:02:20;;;;;;;17.80;6.30;;;;;;;;;;4989344;28;20074;-59
2021/03/14 01:04:46;;;;;;;16.60;6.18;;;;;;;;;;4971660;28;20465;-60
2021/03/14 01:07:12;;;;;;;20.45;6.20;;;;;;;;;;4988811;28;20077;-63
2021/03/14 01:09:38;;;;;;;17.75;6.32;;;;;;;;;;4988663;28;20042;-62
2021/03/14 01:12:04;;;;;;;14.93;5.80;;;;;;;;;;4988163;28;20046;-62
2021/03/14 01:14:31;;;;;;;17.98;6.07;;;;;;;;;;4970939;28;20030;-63
2021/03/14 01:16:57;;;;;;;16.50;5.95;;;;;;;;;;4970521;28;20026;-63
2021/03/14 01:19:23;;;;;;;14.65;6.10;;;;;;;;;;4988796;28;20543;-63
2021/03/14 01:21:48;;;;;;;14.98;5.65;;;;;;;;;;4971070;28;20034;-64
2021/03/14 01:24:15;;;;;;;14.25;5.28;;;;;;;;;;4989531;28;20045;-64
2021/03/14 01:26:41;;;;;;;16.67;6.05;;;;;;;;;;4972023;28;20104;-63
2021/03/14 01:29:07;;;;;;;17.95;6.18;;;;;;;;;;4991240;28;20030;-63
2021/03/14 01:31:33;;;;;;;14.65;5.90;;;;;;;;;;4974164;28;20512;-64
2021/03/14 01:33:59;;;;;;;16.23;6.43;;;;;;;;;;4991613;28;20061;-64
2021/03/14 01:36:25;;;;;;;17.83;5.97;;;;;;;;;;4973690;28;20034;-68
2021/03/14 01:38:51;;;;;;;20.20;6.40;;;;;;;;;;4973917;28;20066;-64
2021/03/14 01:41:17;;;;;;;17.35;5.88;;;;;;;;;;4974021;28;20072;-63
2021/03/14 01:43:43;;;;;;;16.92;5.55;;;;;;;;;;4991658;28;20029;-63
2021/03/14 01:46:09;;;;;;;16.17;5.45;;;;;;;;;;4973795;28;20027;-62
2021/03/14 01:48:36;;;;;;;19.08;6.90;;;;;;;;;;4991408;28;20023;-64
2021/03/14 01:51:03;;;;;;;15.50;6.57;;;;;;;;;;4973871;28;20053;-64
2021/03/14 01:53:30;;;;;;;17.75;6.95;;;;;;;;;;4991351;28;20022;-63
2021/03/14 01:55:56;;;;;;;15.55;5.97;;;;;;;;;;4991120;28;20035;-63
2021/03/14 01:58:23;;;;;;;19.65;6.38;;;;;;;;;;4991318;28;20058;-63
2021/03/14 02:00:50;;;;;;;14.88;6.00;;;;;;;;;;4991337;28;20018;-64
2021/03/14 02:03:16;;;;;;;16.50;6.22;;;;;;;;;;4974478;28;20351;-63
2021/03/14 02:05:42;;;;;;;21.55;7.90;;;;;;;;;;4973777;28;20035;-64
2021/03/14 02:08:08;;;;;;;16.92;6.15;;;;;;;;;;4990921;28;20104;-63
2021/03/14 02:10:36;;;;;;;16.60;5.82;;;;;;;;;;4991178;28;20101;-64
2021/03/14 02:13:02;;;;;;;19.30;6.53;;;;;;;;;;4991041;28;20054;-63
2021/03/14 02:15:28;;;;;;;18.65;6.22;;;;;;;;;;4991080;28;20393;-65
2021/03/14 02:17:54;;;;;;;14.10;5.20;;;;;;;;;;4990952;28;20094;-65
2021/03/14 02:20:26;;;;;;;12.68;5.30;;;;;;;;;;4990828;28;20469;-64
2021/03/14 02:22:57;;;;;;;17.85;5.68;;;;;;;;;;4991238;28;20029;-64
2021/03/14 02:25:27;;;;;;;17.60;5.90;;;;;;;;;;4994316;28;20023;-64
2021/03/14 02:27:53;;;;;;;15.85;6.53;;;;;;;;;;4994651;28;20027;-65
2021/03/14 02:30:19;;;;;;;19.58;5.82;;;;;;;;;;4994802;28;20026;-64
2021/03/14 02:32:45;;;;;;;20.85;5.60;;;;;;;;;;4994774;28;20038;-64
2021/03/14 02:35:12;;;;;;;17.65;6.00;;;;;;;;;;4994579;28;20034;-64
2021/03/14 02:37:38;;;;;;;16.48;5.78;;;;;;;;;;4994354;28;20034;-64
2021/03/14 02:40:05;;;;;;;15.90;5.20;;;;;;;;;;4977024;28;20061;-64
2021/03/14 02:42:31;;;;;;;16.45;5.28;;;;;;;;;;4994560;28;20023;-64
2021/03/14 02:44:58;;;;;;;14.93;5.30;;;;;;;;;;4994487;28;20077;-64
2021/03/14 02:47:25;;;;;;;15.52;5.18;;;;;;;;;;4994134;28;20023;-64
2021/03/14 02:49:51;;;;;;;21.23;7.30;;;;;;;;;;4994486;28;20382;-63
2021/03/14 02:52:22;;;;;;;16.48;5.78;;;;;;;;;;4994345;28;20030;-64
2021/03/14 02:54:49;;;;;;;22.23;5.40;;;;;;;;;;4994364;28;20033;-64
2021/03/14 02:57:16;;;;;;;16.77;5.28;;;;;;;;;;4993951;28;20042;-64
2021/03/14 02:59:42;;;;;;;16.70;7.20;;;;;;;;;;4994076;28;20031;-64
2021/03/14 03:02:08;;;;;;;16.73;5.57;;;;;;;;;;4994113;28;20101;-64
2021/03/14 03:04:35;;;;;;;14.43;5.25;;;;;;;;;;4993143;28;20026;-63
2021/03/14 03:07:01;;;;;;;14.68;5.63;;;;;;;;;;4993142;28;20045;-63
2021/03/14 03:09:28;;;;;;;16.63;5.50;;;;;;;;;;4994035;28;20027;-64
2021/03/14 03:11:54;;;;;;;18.70;5.45;;;;;;;;;;4994197;28;20026;-64
2021/03/14 03:14:23;;;;;;;18.80;5.63;;;;;;;;;;4993861;28;20071;-64
2021/03/14 03:16:51;;;;;;;17.73;5.95;;;;;;;;;;4993721;28;20027;-63
2021/03/14 03:19:18;;;;;;;16.48;5.70;;;;;;;;;;4993723;28;20027;-63
2021/03/14 03:21:44;;;;;;;16.65;5.45;;;;;;;;;;4976345;28;20034;-63
2021/03/14 03:24:11;;;;;;;17.83;5.80;;;;;;;;;;4993830;28;20070;-63
2021/03/14 03:26:43;;;;;;;14.88;5.68;;;;;;;;;;4976016;28;20033;-64
2021/03/14 03:29:10;;;;;;;17.05;5.43;;;;;;;;;;4993595;28;20478;-64
2021/03/14 03:31:36;;;;;;;14.85;5.63;;;;;;;;;;4976079;28;20461;-64
2021/03/14 03:34:03;;;;;;;19.17;5.80;;;;;;;;;;4993556;28;20031;-64
2021/03/14 03:36:30;;;;;;;16.48;6.07;;;;;;;;;;4992488;28;20042;-63
2021/03/14 03:38:56;;;;;;;17.08;5.70;;;;;;;;;;4975893;28;20034;-63
2021/03/14 03:41:24;;;;;;;17.92;6.50;;;;;;;;;;4993435;28;20061;-64
2021/03/14 03:43:51;;;;;;;17.52;5.75;;;;;;;;;;4993363;28;20022;-64
2021/03/14 03:46:19;;;;;;;14.63;5.68;;;;;;;;;;4993199;28;20366;-64
2021/03/14 03:48:44;;;;;;;19.30;6.35;;;;;;;;;;4975773;28;20046;-66
2021/03/14 03:51:11;;;;;;;19.90;6.15;;;;;;;;;;4975770;28;20429;-63
2021/03/14 03:53:38;;;;;;;14.15;5.97;;;;;;;;;;4975743;28;20035;-64
2021/03/14 03:56:05;;;;;;;14.02;5.80;;;;;;;;;;4992888;28;20061;-63
2021/03/14 03:58:31;;;;;;;17.52;6.65;;;;;;;;;;4975611;28;20024;-62
2021/03/14 04:00:58;;;;;;;16.20;5.38;;;;;;;;;;4975635;28;20026;-64
2021/03/14 04:03:24;;;;;;;16.15;5.93;;;;;;;;;;4993014;28;20026;-63
2021/03/14 04:05:55;;;;;;;18.17;6.60;;;;;;;;;;4993022;28;20030;-64
2021/03/14 04:08:21;;;;;;;19.75;7.65;;;;;;;;;;4993061;28;20018;-63
2021/03/14 04:10:48;;;;;;;14.50;5.57;;;;;;;;;;4993085;28;20030;-64
2021/03/14 04:13:15;;;;;;;15.15;5.82;;;;;;;;;;4992942;28;20031;-64
2021/03/14 04:15:41;;;;;;;23.30;6.35;;;;;;;;;;4992704;28;20058;-64
2021/03/14 04:18:08;;;;;;;18.00;6.03;;;;;;;;;;4992546;28;20104;-64
2021/03/14 04:20:36;;;;;;;17.23;5.07;;;;;;;;;;4993059;28;20078;-62
2021/03/14 04:23:05;;;;;;;22.00;6.13;;;;;;;;;;4975525;28;20033;-63
2021/03/14 04:25:31;;;;;;;19.13;5.63;;;;;;;;;;4993461;28;20030;-63
2021/03/14 04:27:57;;;;;;;15.55;5.68;;;;;;;;;;4992664;28;20033;-63
2021/03/14 04:30:25;;;;;;;19.33;6.00;;;;;;;;;;4975438;28;20371;-63
2021/03/14 04:32:52;;;;;;;25.75;7.78;;;;;;;;;;4992437;28;20061;-63
2021/03/14 04:35:18;;;;;;;13.60;5.60;;;;;;;;;;4975097;28;20374;-63
2021/03/14 04:37:44;;;;;;;16.73;7.10;;;;;;;;;;4992316;28;20030;-63
2021/03/14 04:40:11;;;;;;;13.13;5.35;;;;;;;;;;4992242;28;20080;-63
2021/03/14 04:42:38;;;;;;;18.10;5.97;;;;;;;;;;4992487;28;20034;-63
2021/03/14 04:45:05;;;;;;;15.88;5.55;;;;;;;;;;4974917;28;20520;-63
2021/03/14 04:47:31;;;;;;;16.83;5.68;;;;;;;;;;4974253;28;20061;-63
2021/03/14 04:49:58;;;;;;;18.73;5.75;;;;;;;;;;4992155;28;20070;-63
2021/03/14 04:52:24;;;;;;;19.83;6.68;;;;;;;;;;4991760;28;20050;-63
2021/03/14 04:54:51;;;;;;;19.23;5.70;;;;;;;;;;4992034;28;20482;-64
2021/03/14 04:57:17;;;;;;;19.45;6.32;;;;;;;;;;5011502;22;20111;-60
2021/03/14 04:59:44;;;;;;;17.58;5.90;;;;;;;;;;4995457;28;20056;-58
2021/03/14 05:02:12;;;;;;;21.25;7.50;;;;;;;;;;5013013;28;20093;-59
2021/03/14 05:04:39;;;;;;;21.13;7.35;;;;;;;;;;5012931;28;20026;-55
2021/03/14 05:07:05;;;;;;;22.98;9.27;;;;;;;;;;5012028;28;20461;-58
2021/03/14 05:09:32;;;;;;;18.05;7.80;;;;;;;;;;5012981;28;20026;-59
2021/03/14 05:11:59;;;;;;;21.33;7.93;;;;;;;;;;4995250;28;20030;-60
2021/03/14 05:14:25;;;;;;;19.85;7.22;;;;;;;;;;4995316;28;20469;-57
2021/03/14 05:16:51;;;;;;;18.98;8.13;;;;;;;;;;4994683;28;20393;-59
2021/03/14 05:19:18;;;;;;;19.50;7.57;;;;;;;;;;5012674;28;20409;-58
2021/03/14 05:21:44;;;;;;;24.40;9.57;;;;;;;;;;4995172;28;20033;-57
2021/03/14 05:24:11;;;;;;;19.15;7.72;;;;;;;;;;4995208;28;20495;-57
2021/03/14 05:26:39;;;;;;;22.02;7.50;;;;;;;;;;5011948;28;20225;-59
2021/03/14 05:29:05;;;;;;;20.05;8.20;;;;;;;;;;5012573;28;20109;-57
2021/03/14 05:31:36;;;;;;;26.40;9.15;;;;;;;;;;4994924;28;20068;-57
2021/03/14 05:34:03;;;;;;;18.08;8.20;;;;;;;;;;5012479;28;20026;-60
2021/03/14 05:36:30;;;;;;;23.45;10.05;;;;;;;;;;5011697;28;20026;-60
2021/03/14 05:38:57;;;;;;;18.85;8.38;;;;;;;;;;4994486;28;20393;-61
2021/03/14 05:41:23;;;;;;;21.58;8.85;;;;;;;;;;5012745;28;20080;-57
2021/03/14 05:43:49;;;;;;;24.15;9.48;;;;;;;;;;5012504;28;20062;-59
2021/03/14 05:46:16;;;;;;;24.50;9.60;;;;;;;;;;5011868;28;20029;-58
2021/03/14 05:48:43;;;;;;;19.90;8.02;;;;;;;;;;4994838;28;20029;-56
2021/03/14 05:51:09;;;;;;;23.50;8.77;;;;;;;;;;4994823;28;20045;-58
2021/03/14 05:53:38;;;;;;;21.90;9.18;;;;;;;;;;4994673;28;20109;-62
2021/03/14 05:56:05;;;;;;;24.30;8.95;;;;;;;;;;5011800;28;20021;-59
2021/03/14 05:58:31;;;;;;;19.77;8.50;;;;;;;;;;4995121;28;20472;-58
2021/03/14 06:00:58;;;;;;;25.52;9.30;;;;;;;;;;5016263;28;20034;-59
2021/03/14 06:03:24;;;;;;;18.75;8.60;;;;;;;;;;5016371;28;20041;-57
2021/03/14 06:05:50;;;;;;;21.05;9.23;;;;;;;;;;5016339;28;20469;-59
2021/03/14 06:08:16;;;;;;;20.17;8.13;;;;;;;;;;4998143;28;20127;-58
2021/03/14 06:10:42;;;;;;;21.67;9.40;;;;;;;;;;4998643;28;20442;-60
2021/03/14 06:13:08;;;;;;;25.63;9.88;;;;;;;;;;4998964;28;20392;-59
2021/03/14 06:15:34;;;;;;;21.42;9.02;;;;;;;;;;4998831;28;20034;-60
2021/03/14 06:18:01;;;;;;;20.88;8.52;;;;;;;;;;5015191;28;20029;-58
2021/03/14 06:20:53;;;;;;;23.52;8.40;;;;;;;;;;5016138;28;20041;-57
2021/03/14 06:23:20;;;;;;;21.02;8.57;;;;;;;;;;5011661;28;20041;-59
2021/03/14 06:25:47;;;;;;;23.85;10.10;;;;;;;;;;4998191;28;20022;-59
2021/03/14 06:28:13;;;;;;;21.20;10.13;;;;;;;;;;5015367;28;20021;-59
2021/03/14 06:30:40;;;;;;;22.30;9.80;;;;;;;;;;5015972;28;20073;-59
2021/03/14 06:33:13;;;;;;;25.67;8.20;;;;;;;;;;4998071;28;20053;-57
2021/03/14 06:35:47;;;;;;;20.65;8.15;;;;;;;;;;4998360;28;20026;-59
2021/03/14 06:38:27;;;;;;;16.55;7.45;;;;;;;;;;4997404;28;20408;-59
2021/03/14 06:41:05;;;;;;;20.77;7.10;;;;;;;;;;5015374;28;20037;-57
2021/03/14 06:43:35;;;;;;;26.02;8.15;;;;;;;;;;5015555;28;20025;-58
2021/03/14 06:46:01;;;;;;;22.48;7.70;;;;;;;;;;4997604;28;20022;-55
2021/03/14 06:48:27;;;;;;;21.55;8.07;;;;;;;;;;5015115;28;20101;-59
2021/03/14 06:50:54;;;;;;;16.55;7.18;;;;;;;;;;4997728;28;20032;-58
2021/03/14 06:53:21;;;;;;;23.00;7.20;;;;;;;;;;5015586;28;20053;-62
2021/03/14 06:55:48;;;;;;;19.63;7.03;;;;;;;;;;5015238;28;20022;-62
2021/03/14 06:58:27;;;;;;;16.00;6.88;;;;;;;;;;5014506;28;20113;-59
2021/03/14 07:01:08;;;;;;;20.95;7.47;;;;;;;;;;5015184;28;20025;-57
2021/03/14 07:03:35;;;;;;;19.17;7.72;;;;;;;;;;5015238;28;20124;-61
2021/03/14 07:06:21;;;;;;;21.33;8.20;;;;;;;;;;5014873;28;20022;-58
2021/03/14 07:08:48;;;;;;;19.05;7.50;;;;;;;;;;5015055;28;20442;-59
2021/03/14 07:11:32;;;;;;;19.60;8.20;;;;;;;;;;4997478;28;20030;-59
2021/03/14 07:13:59;;;;;;;18.20;7.10;;;;;;;;;;5015193;28;20032;-58
2021/03/14 07:16:39;;;;;;;21.92;9.00;;;;;;;;;;5014366;28;20026;-57
2021/03/14 07:19:07;;;;;;;23.73;9.05;;;;;;;;;;5015013;28;20105;-56
2021/03/14 07:21:33;;;;;;;22.15;7.20;;;;;;;;;;4997381;28;20481;-61
2021/03/14 07:23:59;;;;;;;22.85;8.00;;;;;;;;;;4997262;28;20033;-61
2021/03/14 07:26:45;;;;;;;25.10;9.32;;;;;;;;;;5014081;28;20095;-61
2021/03/14 07:29:11;;;;;;;24.67;8.93;;;;;;;;;;5007486;28;20038;-60
2021/03/14 07:31:37;;;;;;;19.15;7.30;;;;;;;;;;5016740;28;20030;-60
2021/03/14 07:34:04;;;;;;;22.88;9.35;;;;;;;;;;5012747;28;20042;-60
2021/03/14 07:36:30;;;;;;;25.33;8.73;;;;;;;;;;5004920;28;20037;-64
2021/03/14 07:38:57;;;;;;;17.60;8.00;;;;;;;;;;5013352;28;20032;-62
2021/03/14 07:41:23;;;;;;;20.05;7.70;;;;;;;;;;5012957;28;20026;-61
2021/03/14 07:43:49;;;;;;;27.17;9.85;;;;;;;;;;5012898;28;20026;-62
2021/03/14 07:46:16;;;;;;;23.98;9.00;;;;;;;;;;5014054;28;20037;-64
2021/03/14 07:48:43;;;;;;;29.85;8.98;;;;;;;;;;5014556;28;20507;-61
2021/03/14 07:51:11;;;;;;;21.05;8.98;;;;;;;;;;4997180;28;20481;-60
2021/03/14 07:53:37;;;;;;;20.73;8.95;;;;;;;;;;5013234;28;20026;-57
2021/03/14 07:56:04;;;;;;;21.27;9.25;;;;;;;;;;5012765;28;20078;-61
2021/03/14 07:58:30;;;;;;;22.05;8.55;;;;;;;;;;5013753;28;20481;-61
2021/03/14 08:00:56;;;;;;;24.63;10.07;;;;;;;;;;5014223;28;20481;-60
2021/03/14 08:03:38;;;;;;;18.63;7.97;;;;;;;;;;5008117;28;20108;-58
2021/03/14 08:06:04;;;;;;;20.23;8.20;;;;;;;;;;5013334;28;20573;-55
2021/03/14 08:08:36;;;;;;;20.90;10.30;;;;;;;;;;5013316;28;20056;-61
2021/03/14 08:11:02;;;;;;;20.38;9.15;;;;;;;;;;5014131;28;20056;-57
2021/03/14 08:13:31;;;;;;;22.08;8.57;;;;;;;;;;5012170;28;20030;-58
2021/03/14 08:16:00;;;;;;;21.33;8.25;;;;;;;;;;5012785;28;20496;-59
2021/03/14 08:18:35;;;;;;;17.70;8.02;;;;;;;;;;5013761;28;20029;-62
2021/03/14 08:21:01;;;;;;;23.50;8.32;;;;;;;;;;4995998;28;20030;-54
2021/03/14 08:23:41;;;;;;;19.60;8.88;;;;;;;;;;4996351;28;20489;-58
2021/03/14 08:26:27;;;;;;;21.88;7.85;;;;;;;;;;4996054;28;20057;-55
2021/03/14 08:28:56;;;;;;;19.50;9.25;;;;;;;;;;5013330;28;20018;-60
2021/03/14 08:31:37;;;;;;;20.42;9.10;;;;;;;;;;5013705;28;20018;-61
2021/03/14 08:34:04;;;;;;;19.17;8.20;;;;;;;;;;5013714;28;20054;-60
2021/03/14 08:36:31;;;;;;;23.00;10.50;;;;;;;;;;5012275;28;20084;-59
2021/03/14 08:38:58;;;;;;;18.98;8.30;;;;;;;;;;5013485;28;20026;-60
2021/03/14 08:41:38;;;;;;;19.80;8.70;;;;;;;;;;5005824;28;20504;-61
2021/03/14 08:44:09;;;;;;;18.17;8.07;;;;;;;;;;5012968;28;20022;-61
2021/03/14 08:46:51;;;;;;;16.73;7.95;;;;;;;;;;5011728;28;20044;-61
2021/03/14 08:49:18;;;;;;;23.00;9.82;;;;;;;;;;5014458;28;20022;-61
2021/03/14 08:51:45;;;;;;;19.23;8.18;;;;;;;;;;5013661;28;20050;-59
2021/03/14 08:54:11;;;;;;;18.30;8.10;;;;;;;;;;5013182;28;20392;-61
2021/03/14 08:56:37;;;;;;;22.48;8.27;;;;;;;;;;5013048;28;20037;-62
2021/03/14 08:59:10;;;;;;;17.00;7.50;;;;;;;;;;5012497;28;20026;-61
2021/03/14 09:01:37;;;;;;;19.17;8.57;;;;;;;;;;5013529;28;20030;-61
2021/03/14 09:04:10;;;;;;;18.02;7.85;;;;;;;;;;5003684;28;20026;-60
2021/03/14 09:06:36;;;;;;;18.10;7.38;;;;;;;;;;5012835;28;20077;-60
2021/03/14 09:09:06;;;;;;;17.83;8.55;;;;;;;;;;5011990;28;20045;-61
2021/03/14 09:11:36;;;;;;;17.23;7.70;;;;;;;;;;5012002;28;20385;-60
2021/03/14 09:14:21;;;;;;;16.75;7.35;;;;;;;;;;5011818;28;20504;-60
2021/03/14 09:16:49;;;;;;;19.85;7.82;;;;;;;;;;5012507;28;20022;-61
2021/03/14 09:19:21;;;;;;;16.80;7.03;;;;;;;;;;5012622;28;20445;-60
2021/03/14 09:21:48;;;;;;;18.85;9.82;;;;;;;;;;5012919;28;20026;-64
2021/03/14 09:24:24;;;;;;;17.35;8.68;;;;;;;;;;5012831;28;20517;-57
2021/03/14 09:26:57;;;;;;;18.23;8.63;;;;;;;;;;5012592;28;20025;-58
2021/03/14 09:29:36;;;;;;;17.85;8.65;;;;;;;;;;5012271;28;20040;-58
2021/03/14 09:32:03;;;;;;;17.92;9.10;;;;;;;;;;5012777;28;20109;-58
2021/03/14 09:34:30;;;;;;;19.50;8.57;;;;;;;;;;5011513;28;20034;-61
2021/03/14 09:36:57;;;;;;;16.85;9.13;;;;;;;;;;5012568;28;20050;-56
2021/03/14 09:39:26;;;;;;;18.08;9.23;;;;;;;;;;5012728;28;20034;-57
2021/03/14 09:41:53;;;;;;;18.88;8.75;;;;;;;;;;5013094;28;20093;-57
2021/03/14 09:44:19;;;;;;;24.95;9.05;;;;;;;;;;5012082;28;20022;-58
2021/03/14 09:46:52;;;;;;;18.05;9.07;;;;;;;;;;5012535;28;20022;-59
2021/03/14 09:49:18;;;;;;;20.00;10.00;;;;;;;;;;5012600;28;20045;-61
2021/03/14 09:51:49;;;;;;;17.60;9.48;;;;;;;;;;4994762;28;20026;-60
2021/03/14 09:54:15;;;;;;;21.02;10.05;;;;;;;;;;5012753;28;20096;-58
2021/03/14 09:56:41;;;;;;;20.17;9.68;;;;;;;;;;5011903;28;20030;-59
2021/03/14 09:59:07;;;;;;;19.25;9.27;;;;;;;;;;5012251;28;20057;-62
2021/03/14 10:01:36;;;;;;;20.75;11.00;;;;;;;;;;5011252;28;20481;-56
2021/03/14 10:04:02;;;;;;;;;;;;;;;;;;5013943;28;20030;-57
2021/03/14 10:06:28;;;;;;;18.85;10.23;;;;;;;;;;5012802;28;19916;-56
2021/03/14 10:08:54;;;;;;;25.55;12.63;;;;;;;;;;5012615;28;20046;-53
2021/03/14 10:11:20;;;;;;;27.08;12.77;;;;;;;;;;5011012;28;20025;-54
2021/03/14 10:13:47;;;;;;;23.17;12.48;;;;;;;;;;5010617;28;20092;-55
2021/03/14 10:16:17;;;;;;;22.60;12.45;;;;;;;;;;5012469;28;20022;-54
2021/03/14 10:18:44;;;;;;;23.05;12.40;;;;;;;;;;5011499;28;20021;-55
2021/03/14 10:21:15;;;;;;;22.92;12.65;;;;;;;;;;5012288;28;20567;-55
2021/03/14 10:23:41;;;;;;;23.80;12.73;;;;;;;;;;5010253;28;20034;-55
2021/03/14 10:26:08;;;;;;;23.05;12.90;;;;;;;;;;5011968;28;20018;-56
2021/03/14 10:28:38;;;;;;;22.88;12.68;;;;;;;;;;5012175;28;20033;-55
2021/03/14 10:31:08;;;;;;;25.13;14.02;;;;;;;;;;5012337;28;20026;-56
2021/03/14 10:33:44;;;;;;;27.08;13.18;;;;;;;;;;5012348;28;20057;-53
2021/03/14 10:36:11;;;;;;;23.50;13.40;;;;;;;;;;5012363;28;20018;-50
2021/03/14 10:38:41;;;;;;;25.92;13.50;;;;;;;;;;5012583;28;20030;-50
2021/03/14 10:41:12;;;;;;;27.30;13.25;;;;;;;;;;5012133;28;20033;-55
2021/03/14 10:43:48;;;;;;;23.88;13.52;;;;;;;;;;5011870;28;20105;-54
2021/03/14 10:46:33;;;;;;;22.67;15.10;;;;;;;;;;5015170;28;20025;-56
2021/03/14 10:49:03;;;;;;;28.55;14.75;;;;;;;;;;5016123;28;20029;-59
2021/03/14 10:51:36;;;;;;;26.35;15.85;;;;;;;;;;5015827;28;20130;-58
2021/03/14 10:54:06;;;;;;;28.67;16.45;;;;;;;;;;5015364;28;20489;-56
2021/03/14 10:56:33;;;;;;;24.45;14.88;;;;;;;;;;5036220;23;20033;-65
2021/03/14 10:58:59;;;;;;;25.17;14.77;;;;;;;;;;4979714;28;20045;-63
2021/03/14 11:01:36;;;;;;;26.73;15.07;;;;;;;;;;5000170;28;20535;-66
2021/03/14 11:04:03;;;;;;;24.70;14.50;;;;;;;;;;5015169;28;20025;-64
2021/03/14 11:06:29;;;;;;;25.80;15.35;;;;;;;;;;5013671;28;20054;-64
2021/03/14 11:09:03;;;;;;;27.40;13.43;;;;;;;;;;5013984;28;20388;-63
2021/03/14 11:11:40;;;;;;;23.30;12.85;;;;;;;;;;5014787;28;20097;-63
2021/03/14 11:14:25;;;;;;;22.23;12.60;;;;;;;;;;5006852;28;20493;-64
2021/03/14 11:17:03;;;;;;;25.70;12.27;;;;;;;;;;4993157;28;20129;-64
2021/03/14 11:19:29;;;;;;;24.00;12.40;;;;;;;;;;5014808;28;20029;-63
2021/03/14 11:21:55;;;;;;;21.50;11.90;;;;;;;;;;4997393;28;20029;-64
2021/03/14 11:24:21;;;;;;;24.83;12.30;;;;;;;;;;5014671;28;20022;-62
2021/03/14 11:26:47;;;;;;;21.30;12.20;;;;;;;;;;4996778;28;20440;-64
2021/03/14 11:29:13;;;;;;;23.40;11.88;;;;;;;;;;4997273;28;20129;-64
2021/03/14 11:31:39;;;;;;;21.02;10.85;;;;;;;;;;5014894;28;20109;-64
2021/03/14 11:34:05;;;;;;;23.67;11.48;;;;;;;;;;5014725;28;20060;-64
2021/03/14 11:36:31;;;;;;;22.33;12.13;;;;;;;;;;5014354;28;20437;-62
2021/03/14 11:38:57;;;;;;;26.40;12.65;;;;;;;;;;5014815;28;20068;-58
2021/03/14 11:41:23;;;;;;;22.67;11.95;;;;;;;;;;5013041;28;20579;-62
2021/03/14 11:43:49;;;;;;;19.95;12.07;;;;;;;;;;5013163;28;20026;-61
2021/03/14 11:46:15;;;;;;;27.52;11.98;;;;;;;;;;5006287;28;20033;-63
2021/03/14 11:48:41;;;;;;;25.00;11.98;;;;;;;;;;5013847;28;20034;-63
2021/03/14 11:51:07;;;;;;;22.13;10.18;;;;;;;;;;5003617;28;20041;-62
2021/03/14 11:53:33;;;;;;;24.67;9.68;;;;;;;;;;5004576;28;20081;-62
2021/03/14 11:56:00;;;;;;;19.63;9.50;;;;;;;;;;5013395;28;20026;-61
2021/03/14 11:58:26;;;;;;;30.05;10.85;;;;;;;;;;5013036;28;20519;-62
2021/03/14 12:00:52;;;;;;;19.25;9.25;;;;;;;;;;5008332;28;20036;-62
2021/03/14 12:03:18;;;;;;;19.33;9.75;;;;;;;;;;5013874;28;20113;-64
2021/03/14 12:05:44;;;;;;;21.90;9.85;;;;;;;;;;5013010;28;20064;-63
2021/03/14 12:08:11;;;;;;;18.98;9.98;;;;;;;;;;4995569;28;20030;-63
2021/03/14 12:10:37;;;;;;;23.33;9.60;;;;;;;;;;5014139;28;20042;-64
2021/03/14 12:13:03;;;;;;;21.42;8.70;;;;;;;;;;5013155;28;20040;-63
2021/03/14 12:15:29;;;;;;;20.63;10.55;;;;;;;;;;4996009;28;20025;-64
2021/03/14 12:17:55;;;;;;;18.38;9.32;;;;;;;;;;4997088;28;20100;-63
2021/03/14 12:20:21;;;;;;;17.70;8.75;;;;;;;;;;4996153;28;20036;-62
2021/03/14 12:22:47;;;;;;;15.75;8.98;;;;;;;;;;4995902;28;20030;-63
2021/03/14 12:25:13;;;;;;;24.02;11.57;;;;;;;;;;4997307;28;20026;-62
2021/03/14 12:27:39;;;;;;;20.38;10.88;;;;;;;;;;5010243;28;20032;-63
2021/03/14 12:30:07;;;;;;;22.73;10.40;;;;;;;;;;4995668;28;20128;-63
2021/03/14 12:32:33;;;;;;;18.27;10.20;;;;;;;;;;4995775;28;20033;-62
2021/03/14 12:34:59;;;;;;;18.95;10.20;;;;;;;;;;4999636;28;20042;-63
2021/03/14 12:37:25;;;;;;;17.33;10.77;;;;;;;;;;5011609;28;20030;-64
2021/03/14 12:39:51;;;;;;;19.73;10.77;;;;;;;;;;5013216;28;20030;-63
2021/03/14 12:42:17;;;;;;;18.42;10.85;;;;;;;;;;5012601;28;20026;-67
2021/03/14 12:44:44;;;;;;;18.50;10.40;;;;;;;;;;5011402;28;20632;-65
2021/03/14 12:47:10;;;;;;;17.85;10.60;;;7.20;99.90;;;;;;5012587;28;20022;-64
2021/03/14 12:49:35;;;;;;;19.90;10.57;;;10.70;99.90;;;;;;5011638;28;20143;-65
2021/03/14 12:52:02;;;;;;;21.17;11.60;;;;;;;;;;5013342;28;20022;-65
2021/03/14 12:54:28;;;;;;;17.33;9.50;;;;;;;;;;5011859;28;20037;-58
2021/03/14 12:56:54;;;;;;;19.25;9.88;;;;;;;;;;5010832;28;20091;-63
2021/03/14 12:59:20;;;;;;;19.20;9.85;;;;;;;;;;5004115;28;20109;-63
2021/03/14 13:01:46;;;;;;;18.15;9.20;;;;;;;;;;5001539;28;20599;-64
2021/03/14 13:04:12;;;;;;;19.75;9.15;;;;;;;;;;4994687;28;20044;-66
2021/03/14 13:06:38;;;;;;;19.65;9.88;;;;;;;;;;5012214;28;20076;-65
2021/03/14 13:09:05;;;;;;;18.50;8.68;;;;;;;;;;5011908;28;20026;-62
2021/03/14 13:11:31;;;;;;;16.63;9.23;;;;;;;;;;5011767;28;20045;-59
2021/03/14 13:13:57;;;;;;;17.83;8.95;;;;;;;;;;4994635;28;20022;-64
2021/03/14 13:16:23;;;;;;;18.25;9.18;;;10.40;99.90;;;;;;5012187;28;20022;-64
2021/03/14 13:18:49;;;;;;;18.38;8.80;;;8.30;99.90;;;;;;5012165;28;20025;-64
2021/03/14 13:21:14;;;;;;;18.10;8.48;;;8.20;99.90;;;;;;5012238;28;20388;-64
2021/03/14 13:23:40;;;;;;;17.42;8.52;;;;;;;;;;4994433;28;20449;-65
2021/03/14 13:26:07;;;;;;;17.25;9.82;;;;;;;;;;5009680;28;20018;-62
2021/03/14 13:28:33;;;;;;;16.83;10.20;;;;;;;;;;5011473;28;20200;-65
2021/03/14 13:31:00;;;;;;;20.92;10.48;;;;;;;;;;4994389;28;20540;-66
2021/03/14 13:33:26;;;;;;;19.73;10.85;;;;;;;;;;5007850;28;20037;-65
2021/03/14 13:35:52;;;;;;;19.15;10.93;;;;;;;;;;5010643;28;20037;-64
2021/03/14 13:38:19;;;;;;;19.73;10.60;;;;;;;;;;5011596;28;20030;-62
2021/03/14 13:40:45;;;;;;;18.70;10.98;;;;;;;;;;4993199;28;20641;-64
2021/03/14 13:43:11;;;;;;;18.17;10.23;;;;;;;;;;5008721;28;20026;-65
2021/03/14 13:45:37;;;;;;;19.65;10.10;;;;;;;;;;5007852;28;20030;-64
2021/03/14 13:48:03;;;;;;;18.83;10.52;;;;;;;;;;5010986;28;20156;-64
2021/03/14 13:50:29;;;;;;;18.02;9.73;;;;;;;;;;5012272;28;20508;-64
2021/03/14 13:52:58;;;;;;;19.65;9.60;;;;;;;;;;4994113;28;20121;-63
2021/03/14 13:55:24;;;;;;;19.73;9.18;;;;;;;;;;4645088;28;9999791;-64
2021/03/14 13:57:50;;;;;;;20.95;10.48;;;;;;;;;;4991020;28;20281;-62
2021/03/14 14:00:19;;;;;;;14.90;7.63;;;;;;;;;;5008855;28;20485;-62
2021/03/14 14:02:46;;;;;;;14.93;7.95;;;;;;;;;;4990967;28;20030;-61
2021/03/14 14:05:13;;;;;;;14.70;7.85;;;;;;;;;;5008718;28;20101;-64
2021/03/14 14:07:39;;;;;;;14.27;7.93;;;;;;;;;;5004678;28;20389;-64
2021/03/14 14:10:07;;;;;;;14.10;8.57;;;;;;;;;;5008674;28;20030;-66
2021/03/14 14:12:33;;;;;;;16.60;8.10;;;;;;;;;;4991595;28;20030;-64
2021/03/14 14:14:59;;;;;;;13.90;7.97;;;;;;;;;;5009081;28;20265;-65
2021/03/14 14:17:25;;;;;;;15.50;8.45;;;;;;;;;;5008196;28;20082;-63
2021/03/14 14:19:52;;;;;;;17.33;8.80;;;;;;;;;;4992922;28;20061;-61
2021/03/14 14:22:18;;;;;;;16.90;9.40;;;;;;;;;;4997400;28;20129;-64
2021/03/14 14:24:44;;;;;;;15.65;8.25;;;8.10;99.90;;;;;;5017988;28;20389;-65
2021/03/14 14:27:10;;;;;;;15.00;8.48;;;;;;;;;;5013123;28;20088;-60
2021/03/14 14:29:37;;;;;;;14.50;9.00;;;;;;;;;;5013138;28;20038;-64